Time;durP1;ratioP1;P1;durP2;ratioP2;P2;SDS_P1;SDS_P2;PMS_P1;PMS_P2;Temp;Humidity;BMP_temperature;BMP_pressure;BME280_temperature;BME280_humidity;BME280_pressure;Samples;Min_cycle;Max_cycle;Signal;HPM_P1;HPM_P2
2023/03/30 00:00:44;;;;;;;;;;;19.00;54.00;;;;;;6294001;28;20019;-64
2023/03/30 00:03:46;;;;;;;;;;;19.00;54.00;;;;;;6294179;28;19956;-65
2023/03/30 00:06:47;;;;;;;;;;;19.00;54.00;;;;;;6294289;28;19961;-64
2023/03/30 00:09:47;;;;;;;;;;;19.00;54.00;;;;;;6294083;28;20074;-64
2023/03/30 00:12:49;;;;;;;;;;;19.00;54.00;;;;;;6293660;28;19912;-64
2023/03/30 00:15:50;;;;;;;;;;;19.00;54.00;;;;;;6275931;28;20038;-65
2023/03/30 00:18:50;;;;;;;;;;;19.00;54.00;;;;;;6290875;28;19921;-65
2023/03/30 00:21:51;;;;;;;;;;;19.00;54.00;;;;;;6268903;28;20344;-64
2023/03/30 00:24:51;;;;;;;;;;;19.00;54.00;;;;;;6279286;28;20003;-64
2023/03/30 00:27:52;;;;;;;;;;;19.00;54.00;;;;;;6293765;28;19995;-65
2023/03/30 00:30:53;;;;;;;;;;;19.00;54.00;;;;;;6293601;28;20279;-64
2023/03/30 00:33:53;;;;;;;;;;;19.00;54.10;;;;;;6275572;28;19909;-64
2023/03/30 00:36:55;;;;;;;;;;;19.00;54.00;;;;;;6296333;28;19919;-64
2023/03/30 00:39:55;;;;;;;;;;;19.00;54.00;;;;;;6298160;28;19916;-64
2023/03/30 00:43:00;;;;;;;;;;;19.00;54.10;;;;;;6298153;28;19908;-64
2023/03/30 00:46:00;;;;;;;;;;;19.00;54.00;;;;;;6280737;28;19920;-64
2023/03/30 00:49:07;;;;;;;;;;;19.00;54.00;;;;;;6273219;28;19948;-65
2023/03/30 00:52:08;;;;;;;;;;;19.00;54.00;;;;;;6272945;28;19913;-67
2023/03/30 00:55:10;;;;;;;;;;;19.00;54.00;;;;;;6273285;28;20386;-67
2023/03/30 00:58:11;;;;;;;;;;;19.00;54.10;;;;;;6272988;28;19959;-64
2023/03/30 01:01:13;;;;;;;;;;;19.00;54.00;;;;;;6273365;28;20364;-65
2023/03/30 01:04:15;;;;;;;;;;;19.00;54.00;;;;;;6272621;28;20515;-65
2023/03/30 01:07:17;;;;;;;;;;;19.00;54.10;;;;;;6272850;28;19912;-65
2023/03/30 01:10:18;;;;;;;;;;;19.00;54.10;;;;;;6272653;28;19913;-65
2023/03/30 01:13:19;;;;;;;;;;;19.00;54.10;;;;;;6272612;28;20345;-65
2023/03/30 01:16:29;;;;;;;;;;;19.00;54.10;;;;;;6272773;28;20007;-64
2023/03/30 01:19:32;;;;;;;;;;;19.00;54.10;;;;;;6272305;28;20021;-65
2023/03/30 01:22:45;;;;;;;;;;;19.00;54.10;;;;;;6254346;28;19952;-65
2023/03/30 01:26:12;;;;;;;;;;;19.00;54.10;;;;;;6272499;28;19908;-65
2023/03/30 01:29:16;;;;;;;;;;;19.00;54.10;;;;;;6234518;28;19919;-65
2023/03/30 01:32:28;;;;;;;;;;;19.00;54.10;;;;;;6272425;28;19934;-65
2023/03/30 01:35:35;;;;;;;;;;;19.00;54.10;;;;;;6272771;28;19909;-65
2023/03/30 01:38:54;;;;;;;;;;;19.00;54.10;;;;;;6272321;28;20314;-65
2023/03/30 01:42:01;;;;;;;;;;;19.00;54.10;;;;;;6254295;28;19958;-65
2023/03/30 01:45:08;;;;;;;;;;;19.00;54.10;;;;;;6272157;28;19905;-65
2023/03/30 01:48:18;;;;;;;;;;;19.00;54.10;;;;;;6271909;28;19970;-65
2023/03/30 01:51:20;;;;;;;;;;;19.00;54.10;;;;;;6272294;28;19956;-64
2023/03/30 01:54:22;;;;;;;;;;;19.00;54.10;;;;;;6272054;28;20425;-65
2023/03/30 01:57:43;;;;;;;;;;;19.00;54.10;;;;;;6271999;28;19912;-65
2023/03/30 02:00:48;;;;;;;;;;;19.00;54.10;;;;;;6213805;28;19916;-65
2023/03/30 02:03:55;;;;;;;;;;;19.00;54.20;;;;;;6271853;28;20003;-65
2023/03/30 02:06:58;;;;;;;;;;;19.00;54.10;;;;;;6271951;28;20022;-65
2023/03/30 02:10:04;;;;;;;;;;;19.00;54.20;;;;;;6271910;28;19913;-65
2023/03/30 02:13:05;;;;;;;;;;;19.00;54.20;;;;;;6253935;28;19908;-65
2023/03/30 02:16:08;;;;;;;;;;;19.00;54.10;;;;;;6271538;28;20423;-65
2023/03/30 02:19:09;;;;;;;;;;;19.00;54.20;;;;;;6271968;28;19919;-65
2023/03/30 02:22:10;;;;;;;;;;;19.00;54.20;;;;;;6271459;28;19909;-64
2023/03/30 02:25:11;;;;;;;;;;;19.00;54.20;;;;;;6253542;28;19916;-65
2023/03/30 02:28:12;;;;;;;;;;;19.00;54.10;;;;;;6253342;28;19955;-65
2023/03/30 02:31:14;;;;;;;;;;;19.00;54.20;;;;;;6271614;28;19917;-65
2023/03/30 02:34:25;;;;;;;;;;;19.00;54.20;;;;;;6271132;28;19996;-64
2023/03/30 02:37:33;;;;;;;;;;;19.00;54.20;;;;;;6271130;28;20088;-65
2023/03/30 02:40:53;;;;;;;;;;;19.00;54.20;;;;;;6271149;28;19955;-65
2023/03/30 02:44:02;;;;;;;;;;;19.00;54.20;;;;;;6252919;28;19910;-65
2023/03/30 02:47:11;;;;;;;;;;;19.00;54.20;;;;;;6271147;28;20021;-65
2023/03/30 02:50:21;;;;;;;;;;;19.00;54.20;;;;;;6271155;28;19909;-65
2023/03/30 02:53:37;;;;;;;;;;;19.00;54.20;;;;;;6267828;28;19909;-65
2023/03/30 02:56:47;;;;;;;;;;;19.00;54.20;;;;;;6270924;28;19987;-65
2023/03/30 02:59:47;;;;;;;;;;;19.00;54.20;;;;;;6252049;28;19909;-65
2023/03/30 03:02:51;;;;;;;;;;;19.00;54.10;;;;;;6252865;28;19920;-65
2023/03/30 03:05:52;;;;;;;;;;;19.00;54.20;;;;;;6270452;28;20470;-65
2023/03/30 03:08:54;;;;;;;;;;;19.00;54.20;;;;;;6291478;28;19908;-65
2023/03/30 03:11:55;;;;;;;;;;;19.00;54.20;;;;;;6295202;28;19957;-65
2023/03/30 03:14:55;;;;;;;;;;;19.00;54.20;;;;;;6294968;28;19916;-65
2023/03/30 03:17:57;;;;;;;;;;;19.00;54.20;;;;;;6276903;28;19919;-65
2023/03/30 03:20:57;;;;;;;;;;;19.00;54.20;;;;;;6295015;28;20061;-65
2023/03/30 03:23:58;;;;;;;;;;;19.00;54.20;;;;;;6294887;28;19930;-64
2023/03/30 03:26:58;;;;;;;;;;;19.00;54.20;;;;;;6294841;28;19969;-65
2023/03/30 03:29:59;;;;;;;;;;;19.00;54.20;;;;;;6294902;28;19916;-65
2023/03/30 03:33:00;;;;;;;;;;;19.00;54.30;;;;;;6294944;28;19908;-65
2023/03/30 03:36:00;;;;;;;;;;;19.00;54.20;;;;;;6294801;28;19959;-65
2023/03/30 03:39:01;;;;;;;;;;;19.00;54.30;;;;;;6294652;28;19917;-65
2023/03/30 03:42:02;;;;;;;;;;;19.00;54.20;;;;;;6294808;28;20279;-65
2023/03/30 03:45:03;;;;;;;;;;;19.00;54.20;;;;;;6294563;28;20428;-65
2023/03/30 03:48:04;;;;;;;;;;;19.00;54.20;;;;;;6294585;28;20434;-65
2023/03/30 03:51:04;;;;;;;;;;;19.00;54.20;;;;;;6294630;28;19909;-65
2023/03/30 03:54:05;;;;;;;;;;;19.00;54.90;;;;;;6294634;28;20634;-65
2023/03/30 03:57:06;;;;;;;;;;;19.00;54.20;;;;;;6294443;28;19920;-65
2023/03/30 04:00:14;;;;;;;;;;;19.00;54.20;;;;;;6276661;28;19915;-65
2023/03/30 04:03:15;;;;;;;;;;;19.00;54.20;;;;;;6294549;28;19915;-65
2023/03/30 04:06:15;;;;;;;;;;;19.00;54.20;;;;;;6294676;28;19908;-65
2023/03/30 04:09:18;;;;;;;;;;;19.00;54.20;;;;;;6294898;28;19908;-65
2023/03/30 04:12:19;;;;;;;;;;;19.00;54.20;;;;;;6298726;28;20283;-67
2023/03/30 04:15:20;;;;;;;;;;;19.00;54.20;;;;;;6256040;28;20034;-67
2023/03/30 04:18:20;;;;;;;;;;;19.00;54.20;;;;;;6280135;28;20011;-67
2023/03/30 04:21:22;;;;;;;;;;;19.00;54.20;;;;;;6297910;28;20395;-68
2023/03/30 04:24:24;;;;;;;;;;;19.00;54.20;;;;;;6283288;28;19920;-68
2023/03/30 04:27:27;;;;;;;;;;;19.00;54.20;;;;;;6255288;28;20378;-67
2023/03/30 04:30:29;;;;;;;;;;;19.00;54.20;;;;;;6272912;28;20010;-68
2023/03/30 04:33:33;;;;;;;;;;;19.00;54.20;;;;;;6278862;28;19909;-68
2023/03/30 04:36:34;;;;;;;;;;;19.00;54.20;;;;;;6252494;28;20295;-68
2023/03/30 04:39:35;;;;;;;;;;;19.00;54.20;;;;;;6246242;28;19925;-68
2023/03/30 04:42:38;;;;;;;;;;;19.00;54.20;;;;;;6269635;28;19909;-67
2023/03/30 04:45:38;;;;;;;;;;;19.00;54.20;;;;;;6268376;28;19912;-68
2023/03/30 04:48:39;;;;;;;;;;;19.00;54.20;;;;;;6277002;28;19920;-68
2023/03/30 04:51:41;;;;;;;;;;;19.00;54.20;;;;;;6287356;28;20279;-68
2023/03/30 04:54:42;;;;;;;;;;;19.00;54.20;;;;;;6284956;28;19913;-68
2023/03/30 04:57:42;;;;;;;;;;;19.00;54.20;;;;;;6249067;28;19994;-68
2023/03/30 05:00:43;;;;;;;;;;;19.00;54.80;;;;;;6274834;28;20298;-68
2023/03/30 05:03:43;;;;;;;;;;;19.00;54.20;;;;;;6272063;28;20355;-68
2023/03/30 05:06:44;;;;;;;;;;;19.00;54.80;;;;;;6263265;28;19916;-68
2023/03/30 05:09:44;;;;;;;;;;;19.00;54.20;;;;;;6269693;28;19912;-68
2023/03/30 05:12:47;;;;;;;;;;;19.00;54.20;;;;;;6280773;28;19912;-68
2023/03/30 05:15:54;;;;;;;;;;;19.00;54.20;;;;;;6272321;28;19908;-68
2023/03/30 05:18:55;;;;;;;;;;;19.00;54.20;;;;;;6232691;28;19935;-68
2023/03/30 05:21:56;;;;;;;;;;;19.00;54.20;;;;;;6263272;28;20370;-68
2023/03/30 05:24:56;;;;;;;;;;;19.00;54.20;;;;;;6267464;28;19935;-68
2023/03/30 05:27:57;;;;;;;;;;;19.00;54.20;;;;;;6266133;28;19936;-68
2023/03/30 05:30:57;;;;;;;;;;;19.00;54.20;;;;;;6283066;28;19918;-68
2023/03/30 05:33:58;;;;;;;;;;;19.00;54.20;;;;;;6269223;28;19923;-69
2023/03/30 05:36:59;;;;;;;;;;;19.00;54.20;;;;;;6231464;28;19912;-68
2023/03/30 05:40:00;;;;;;;;;;;19.10;54.30;;;;;;6230245;28;19920;-68
2023/03/30 05:43:01;;;;;;;;;;;19.00;54.20;;;;;;6259373;28;19944;-68
2023/03/30 05:46:02;;;;;;;;;;;19.00;54.20;;;;;;6278389;28;19929;-68
2023/03/30 05:49:03;;;;;;;;;;;19.00;54.90;;;;;;6245791;28;19916;-68
2023/03/30 05:52:03;;;;;;;;;;;19.00;54.20;;;;;;6285090;28;19910;-68
2023/03/30 05:55:04;;;;;;;;;;;19.00;54.20;;;;;;6261086;28;19951;-68
2023/03/30 05:58:05;;;;;;;;;;;19.00;54.30;;;;;;6253029;28;20004;-68
2023/03/30 06:01:06;;;;;;;;;;;19.00;54.30;;;;;;6267307;28;19912;-68
2023/03/30 06:04:07;;;;;;;;;;;19.00;54.30;;;;;;6235324;28;19913;-68
2023/03/30 06:07:07;;;;;;;;;;;19.10;54.30;;;;;;6273321;28;19927;-68
2023/03/30 06:10:09;;;;;;;;;;;19.00;54.20;;;;;;6232987;28;19917;-68
2023/03/30 06:13:10;;;;;;;;;;;19.00;54.20;;;;;;6239447;28;19996;-68
2023/03/30 06:16:11;;;;;;;;;;;19.00;54.20;;;;;;6268370;28;20366;-68
2023/03/30 06:19:13;;;;;;;;;;;19.00;54.20;;;;;;6278073;28;20015;-68
2023/03/30 06:22:14;;;;;;;;;;;19.10;54.30;;;;;;6291319;28;19908;-68
2023/03/30 06:25:15;;;;;;;;;;;19.00;54.20;;;;;;6243454;28;19948;-68
2023/03/30 06:28:16;;;;;;;;;;;19.10;54.30;;;;;;6228490;28;19910;-68
2023/03/30 06:31:16;;;;;;;;;;;19.10;54.30;;;;;;6272343;28;19932;-68
2023/03/30 06:34:17;;;;;;;;;;;19.00;54.20;;;;;;6279332;28;19917;-68
2023/03/30 06:37:18;;;;;;;;;;;19.10;54.30;;;;;;6269499;28;19919;-68
2023/03/30 06:40:19;;;;;;;;;;;19.10;54.30;;;;;;6279358;28;19946;-68
2023/03/30 06:43:21;;;;;;;;;;;19.10;54.30;;;;;;6271665;28;19966;-69
2023/03/30 06:46:22;;;;;;;;;;;19.10;54.30;;;;;;6278245;28;19924;-68
2023/03/30 06:49:22;;;;;;;;;;;19.10;54.30;;;;;;6284957;28;19967;-68
2023/03/30 06:52:23;;;;;;;;;;;19.00;54.30;;;;;;6289919;28;20386;-68
2023/03/30 06:55:23;;;;;;;;;;;19.00;54.30;;;;;;6275932;28;19938;-68
2023/03/30 06:58:28;;;;;;;;;;;19.10;54.30;;;;;;6266991;28;20111;-67
2023/03/30 07:01:32;;;;;;;;;;;19.10;54.30;;;;;;6246392;28;19915;-68
2023/03/30 07:08:36;;;;;;;;;;;19.10;54.30;;;;;;6269597;28;19956;-68
2023/03/30 07:23:00;;;;;;;;;;;19.10;54.40;;;;;;6278624;28;19909;-68
2023/03/30 07:26:04;;;;;;;;;;;19.10;54.40;;;;;;6261137;28;19928;-68
2023/03/30 07:29:51;;;;;;;;;;;;;;;;;;;;;
2023/03/30 07:33:33;;;;;;;;;;;19.10;54.40;;;;;;6287449;28;19991;-68
2023/03/30 07:36:40;;;;;;;;;;;19.10;54.40;;;;;;6234251;28;19912;-68
2023/03/30 07:39:41;;;;;;;;;;;19.10;54.40;;;;;;6287315;28;20007;-68
2023/03/30 07:42:50;;;;;;;;;;;19.10;54.40;;;;;;6284724;28;19913;-68
2023/03/30 07:45:51;;;;;;;;;;;19.10;54.40;;;;;;6276174;28;19908;-68
2023/03/30 07:48:52;;;;;;;;;;;19.10;54.40;;;;;;6270173;28;19958;-66
2023/03/30 07:51:52;;;;;;;;;;;19.10;54.40;;;;;;6276109;28;19912;-69
2023/03/30 07:54:53;;;;;;;;;;;19.10;54.40;;;;;;6281373;28;19909;-69
2023/03/30 07:57:54;;;;;;;;;;;19.10;54.40;;;;;;6234965;28;19912;-68
2023/03/30 08:00:55;;;;;;;;;;;19.10;54.40;;;;;;6245332;28;19909;-68
2023/03/30 08:03:56;;;;;;;;;;;19.10;54.40;;;;;;6289359;28;19916;-67
2023/03/30 08:06:56;;;;;;;;;;;19.10;54.40;;;;;;6239832;28;20003;-67
2023/03/30 08:09:57;;;;;;;;;;;19.10;54.40;;;;;;6236698;28;19927;-67
2023/03/30 08:12:57;;;;;;;;;;;19.10;54.50;;;;;;6251696;28;19919;-68
2023/03/30 08:16:02;;;;;;;;;;;19.10;54.50;;;;;;6282394;28;19920;-67
2023/03/30 08:19:07;;;;;;;;;;;19.10;54.40;;;;;;6270800;28;19939;-67
2023/03/30 08:48:26;;;;;;;;;;;19.10;54.40;;;;;;6125995;28;20055;-67
2023/03/30 08:51:29;;;;;;;;;;;19.10;54.40;;;;;;6130618;29;19914;-67
2023/03/30 08:54:31;;;;;;;;;;;19.10;54.50;;;;;;6129641;28;19921;-66
2023/03/30 08:57:32;;;;;;;;;;;19.10;54.50;;;;;;6223006;28;20424;-73
2023/03/30 09:00:52;;;;;;;;;;;19.10;54.50;;;;;;6243695;28;19961;-74
2023/03/30 09:04:02;;;;;;;;;;;19.10;54.50;;;;;;6225172;28;19916;-67
2023/03/30 09:07:07;;;;;;;;;;;19.10;54.50;;;;;;6235390;28;19921;-67
2023/03/30 09:10:11;;;;;;;;;;;19.10;54.50;;;;;;6222741;28;19917;-67
2023/03/30 09:13:17;;;;;;;;;;;19.10;54.50;;;;;;6224751;28;19909;-67
2023/03/30 09:16:32;;;;;;;;;;;19.10;54.50;;;;;;6232774;28;19988;-67
2023/03/30 09:19:38;;;;;;;;;;;19.10;54.50;;;;;;6225288;28;19914;-67
2023/03/30 09:22:41;;;;;;;;;;;19.10;54.50;;;;;;6207119;28;20376;-67
2023/03/30 09:25:46;;;;;;;;;;;19.10;54.50;;;;;;6224646;28;20499;-67
2023/03/30 09:29:05;;;;;;;;;;;19.10;54.50;;;;;;6224428;28;19909;-67
2023/03/30 09:32:11;;;;;;;;;;;19.10;54.50;;;;;;6224817;28;20287;-67
2023/03/30 09:35:23;;;;;;;;;;;19.10;54.50;;;;;;6248749;28;20048;-67
2023/03/30 09:38:24;;;;;;;;;;;19.10;54.50;;;;;;6226688;28;19914;-67
2023/03/30 09:41:27;;;;;;;;;;;19.10;54.50;;;;;;6206320;28;19967;-67
2023/03/30 09:44:28;;;;;;;;;;;19.10;54.50;;;;;;6229358;28;20211;-67
2023/03/30 09:54:40;;;;;;;;;;;19.10;54.50;;;;;;6223307;28;19917;-67
2023/03/30 09:57:41;;;;;;;;;;;19.10;54.60;;;;;;6237285;28;19951;-67
2023/03/30 10:00:42;;;;;;;;;;;19.10;54.60;;;;;;6246180;28;20330;-67
2023/03/30 10:03:45;;;;;;;;;;;19.10;54.60;;;;;;6230285;28;19909;-67
2023/03/30 10:10:48;;;;;;;;;;;19.10;54.60;;;;;;6231970;28;19913;-67
2023/03/30 10:14:27;;;;;;;;;;;19.10;54.60;;;;;;6223325;28;19967;-68
2023/03/30 10:17:34;;;;;;;;;;;19.10;54.60;;;;;;6233750;28;19913;-67
2023/03/30 10:20:37;;;;;;;;;;;19.10;54.60;;;;;;6231005;28;19910;-67
2023/03/30 10:23:40;;;;;;;;;;;19.10;54.60;;;;;;6236912;28;19912;-68
2023/03/30 10:26:49;;;;;;;;;;;19.10;54.60;;;;;;6247314;28;20277;-67
2023/03/30 10:29:51;;;;;;;;;;;19.10;54.60;;;;;;6246526;28;19916;-68
2023/03/30 10:32:55;;;;;;;;;;;19.10;54.60;;;;;;6240934;28;19910;-68
2023/03/30 10:35:59;;;;;;;;;;;19.10;54.60;;;;;;6222113;28;19910;-68
2023/03/30 10:39:06;;;;;;;;;;;19.10;54.60;;;;;;6236772;28;19917;-68
2023/03/30 10:42:09;;;;;;;;;;;19.10;54.60;;;;;;6246546;28;19915;-68
2023/03/30 10:45:17;;;;;;;;;;;19.10;54.60;;;;;;6231955;28;19956;-68
2023/03/30 10:48:22;;;;;;;;;;;19.10;54.60;;;;;;6228425;28;19909;-68
2023/03/30 10:51:42;;;;;;;;;;;19.10;54.60;;;;;;6249853;28;19971;-70
2023/03/30 10:54:54;;;;;;;;;;;19.10;54.60;;;;;;6252121;28;19913;-68
2023/03/30 10:58:13;;;;;;;;;;;19.10;54.60;;;;;;6245729;28;19913;-69
2023/03/30 11:01:24;;;;;;;;;;;19.10;54.70;;;;;;6259348;28;19909;-68
2023/03/30 11:08:18;;;;;;;;;;;19.10;54.60;;;;;;6243497;28;19909;-68
2023/03/30 11:11:40;;;;;;;;;;;19.10;54.60;;;;;;6232271;28;19915;-68
2023/03/30 11:15:30;;;;;;;;;;;19.00;54.60;;;;;;6234343;28;19940;-68
2023/03/30 11:18:36;;;;;;;;;;;19.10;54.60;;;;;;6245129;28;19982;-68
2023/03/30 11:22:09;;;;;;;;;;;19.10;54.60;;;;;;6234080;28;19939;-68
2023/03/30 11:25:34;;;;;;;;;;;19.10;54.70;;;;;;6238426;28;19995;-69
2023/03/30 11:32:16;;;;;;;;;;;19.10;54.60;;;;;;6232564;28;19909;-68
2023/03/30 11:35:23;;;;;;;;;;;19.10;54.70;;;;;;6238813;28;19913;-68
2023/03/30 11:38:27;;;;;;;;;;;19.10;54.60;;;;;;6236122;28;19920;-69
2023/03/30 11:41:48;;;;;;;;;;;19.10;54.70;;;;;;6219486;28;20316;-68
2023/03/30 11:44:50;;;;;;;;;;;19.10;54.70;;;;;;6250008;28;20038;-67
2023/03/30 11:48:03;;;;;;;;;;;19.10;54.70;;;;;;6269191;28;19912;-68
2023/03/30 11:51:14;;;;;;;;;;;19.10;54.70;;;;;;6250607;28;20202;-67
2023/03/30 11:54:33;;;;;;;;;;;19.10;54.70;;;;;;6245374;28;19917;-68
2023/03/30 11:57:43;;;;;;;;;;;19.00;54.70;;;;;;6269234;28;20011;-68
2023/03/30 12:01:02;;;;;;;;;;;19.10;54.70;;;;;;6268883;28;19936;-67
2023/03/30 12:04:19;;;;;;;;;;;19.10;54.60;;;;;;6257001;28;20347;-67
2023/03/30 12:07:20;;;;;;;;;;;19.10;54.60;;;;;;6217888;28;20407;-67
2023/03/30 12:10:24;;;;;;;;;;;19.10;54.60;;;;;;6248419;28;19909;-68
2023/03/30 12:13:27;;;;;;;;;;;19.10;54.90;;;;;;6268451;28;19920;-68
2023/03/30 12:16:48;;;;;;;;;;;19.10;54.70;;;;;;6268311;28;20292;-67
2023/03/30 12:19:53;;;;;;;;;;;19.20;54.80;;;;;;6268508;28;19920;-69
2023/03/30 12:23:02;;;;;;;;;;;19.20;54.70;;;;;;6268390;28;20036;-67
2023/03/30 12:26:22;;;;;;;;;;;19.20;54.50;;;;;;6252301;28;19956;-67
2023/03/30 12:29:22;;;;;;;;;;;19.20;54.50;;;;;;6247090;28;19914;-68
2023/03/30 12:32:24;;;;;;;;;;;19.20;54.40;;;;;;6260235;28;19919;-67
2023/03/30 12:35:43;;;;;;;;;;;19.20;54.60;;;;;;6261803;28;20467;-67
2023/03/30 12:38:45;;;;;;;;;;;19.10;54.60;;;;;;6273474;28;19920;-67
2023/03/30 12:41:47;;;;;;;;;;;19.10;54.60;;;;;;6267956;28;20391;-67
2023/03/30 12:44:51;;;;;;;;;;;19.10;54.60;;;;;;6273027;28;19991;-68
2023/03/30 12:48:13;;;;;;;;;;;19.10;54.70;;;;;;6273719;28;19908;-68
2023/03/30 12:51:21;;;;;;;;;;;19.10;54.70;;;;;;6248907;28;19968;-67
2023/03/30 12:54:22;;;;;;;;;;;19.10;54.70;;;;;;6225752;28;19913;-68
2023/03/30 12:57:31;;;;;;;;;;;19.10;54.70;;;;;;6263163;28;19921;-67
2023/03/30 13:00:46;;;;;;;;;;;19.10;54.80;;;;;;6251160;28;19909;-67
2023/03/30 13:03:48;;;;;;;;;;;19.10;54.70;;;;;;6267833;28;19909;-67
2023/03/30 13:06:55;;;;;;;;;;;19.10;54.60;;;;;;6254398;28;20371;-67
2023/03/30 13:09:58;;;;;;;;;;;19.10;54.90;;;;;;6273035;28;19979;-67
2023/03/30 13:13:00;;;;;;;;;;;19.10;54.60;;;;;;6271815;28;19975;-67
2023/03/30 13:16:00;;;;;;;;;;;19.20;54.80;;;;;;6270803;28;19908;-67
2023/03/30 13:19:36;;;;;;;;;;;19.10;54.60;;;;;;6247595;28;19920;-67
2023/03/30 13:22:36;;;;;;;;;;;19.10;54.60;;;;;;6217205;28;20113;-67
2023/03/30 13:25:40;;;;;;;;;;;19.10;54.60;;;;;;6272228;28;20625;-68
2023/03/30 13:28:53;;;;;;;;;;;19.10;54.70;;;;;;6266721;28;19965;-67
2023/03/30 13:32:03;;;;;;;;;;;19.10;54.80;;;;;;6247511;28;19913;-67
2023/03/30 13:35:22;;;;;;;;;;;19.10;54.80;;;;;;6246961;28;19964;-67
2023/03/30 13:38:23;;;;;;;;;;;19.10;54.80;;;;;;6242402;28;19913;-67
2023/03/30 13:41:27;;;;;;;;;;;19.10;54.90;;;;;;6272189;28;19943;-68
2023/03/30 13:44:38;;;;;;;;;;;19.10;54.80;;;;;;6268624;28;19909;-67
2023/03/30 13:47:58;;;;;;;;;;;19.10;54.80;;;;;;6235898;28;19917;-67
2023/03/30 13:50:59;;;;;;;;;;;19.20;55.00;;;;;;6247578;28;20062;-71
2023/03/30 13:54:02;;;;;;;;;;;19.10;54.80;;;;;;6246890;28;19917;-68
2023/03/30 13:57:08;;;;;;;;;;;19.10;54.80;;;;;;6248193;28;20375;-67
2023/03/30 14:00:31;;;;;;;;;;;19.10;54.70;;;;;;6269574;28;19919;-67
2023/03/30 14:03:32;;;;;;;;;;;19.10;54.80;;;;;;6256318;28;19909;-68
2023/03/30 14:06:42;;;;;;;;;;;19.10;54.80;;;;;;6253778;28;20425;-67
2023/03/30 14:09:43;;;;;;;;;;;19.10;54.90;;;;;;6271785;28;20419;-68
2023/03/30 14:12:45;;;;;;;;;;;19.10;54.80;;;;;;6253204;28;19909;-68
2023/03/30 14:15:49;;;;;;;;;;;19.10;54.70;;;;;;6271338;28;19913;-68
2023/03/30 14:18:50;;;;;;;;;;;19.10;54.70;;;;;;6253242;28;20063;-68
2023/03/30 14:21:55;;;;;;;;;;;19.10;54.70;;;;;;6271742;28;19945;-68
2023/03/30 14:24:57;;;;;;;;;;;19.10;54.70;;;;;;6234527;28;20429;-68
2023/03/30 14:28:01;;;;;;;;;;;19.10;54.70;;;;;;6250951;28;19916;-68
2023/03/30 14:31:10;;;;;;;;;;;19.10;54.80;;;;;;6229112;28;19909;-68
2023/03/30 14:34:26;;;;;;;;;;;19.10;54.80;;;;;;6246243;28;19968;-68
2023/03/30 14:37:29;;;;;;;;;;;19.10;54.80;;;;;;6228689;28;20280;-68
2023/03/30 14:40:30;;;;;;;;;;;19.10;54.80;;;;;;6265403;28;19908;-67
2023/03/30 14:43:31;;;;;;;;;;;19.10;54.80;;;;;;6245980;28;19920;-68
2023/03/30 14:46:47;;;;;;;;;;;19.10;54.80;;;;;;6235932;28;19910;-68
2023/03/30 14:49:50;;;;;;;;;;;19.10;54.80;;;;;;6251048;28;19963;-68
2023/03/30 14:52:51;;;;;;;;;;;19.10;54.80;;;;;;6270390;28;20504;-68
2023/03/30 14:55:56;;;;;;;;;;;19.10;54.80;;;;;;6261382;28;19929;-68
2023/03/30 14:58:57;;;;;;;;;;;19.10;54.80;;;;;;6244910;28;19916;-68
2023/03/30 15:01:57;;;;;;;;;;;19.10;55.20;;;;;;6228946;28;19944;-68
2023/03/30 15:04:58;;;;;;;;;;;19.10;55.00;;;;;;6258765;28;20282;-68
2023/03/30 15:08:01;;;;;;;;;;;19.10;55.10;;;;;;6270481;28;20441;-68
2023/03/30 15:11:06;;;;;;;;;;;19.10;55.10;;;;;;6251533;28;19917;-67
2023/03/30 15:14:09;;;;;;;;;;;19.10;55.10;;;;;;6256267;28;20498;-68
2023/03/30 15:17:14;;;;;;;;;;;19.10;55.00;;;;;;6252340;28;19916;-68
2023/03/30 15:20:15;;;;;;;;;;;19.10;55.10;;;;;;6270448;28;19909;-68
2023/03/30 15:23:16;;;;;;;;;;;19.10;55.00;;;;;;6223480;28;19917;-67
2023/03/30 15:26:17;;;;;;;;;;;19.10;55.10;;;;;;6251500;28;19909;-68
2023/03/30 15:29:19;;;;;;;;;;;19.10;55.10;;;;;;6264735;28;20054;-68
2023/03/30 15:32:24;;;;;;;;;;;19.10;55.10;;;;;;6269719;28;19913;-68
2023/03/30 15:35:30;;;;;;;;;;;19.10;55.10;;;;;;6236659;28;19993;-68
2023/03/30 15:38:33;;;;;;;;;;;19.10;55.10;;;;;;6246986;28;20394;-68
2023/03/30 15:41:46;;;;;;;;;;;19.10;55.10;;;;;;6251701;28;19916;-67
2023/03/30 15:44:46;;;;;;;;;;;19.10;55.10;;;;;;6268905;28;20383;-68
2023/03/30 15:47:47;;;;;;;;;;;19.10;55.10;;;;;;6248267;28;20007;-68
2023/03/30 15:50:51;;;;;;;;;;;19.10;55.10;;;;;;6249220;28;19909;-68
2023/03/30 15:53:55;;;;;;;;;;;19.10;55.10;;;;;;6268905;28;19917;-68
2023/03/30 15:57:06;;;;;;;;;;;19.10;55.10;;;;;;6269054;28;20596;-68
2023/03/30 16:00:12;;;;;;;;;;;19.10;55.10;;;;;;6259244;28;20471;-68
2023/03/30 16:03:12;;;;;;;;;;;19.10;55.10;;;;;;6249648;28;19909;-68
2023/03/30 16:06:15;;;;;;;;;;;19.10;55.10;;;;;;6220319;28;19913;-68
2023/03/30 16:09:16;;;;;;;;;;;19.10;55.10;;;;;;6243063;28;19925;-68
2023/03/30 16:12:19;;;;;;;;;;;19.10;55.20;;;;;;6248105;28;19928;-67
2023/03/30 16:15:21;;;;;;;;;;;19.20;55.40;;;;;;6246928;28;19940;-68
2023/03/30 16:18:21;;;;;;;;;;;19.20;55.00;;;;;;6255513;28;19996;-67
2023/03/30 16:21:23;;;;;;;;;;;19.30;55.20;;;;;;6245709;28;20121;-67
2023/03/30 16:24:24;;;;;;;;;;;19.30;54.90;;;;;;6238834;28;20403;-68
2023/03/30 16:27:24;;;;;;;;;;;19.30;55.10;;;;;;6270237;28;19909;-67
2023/03/30 16:30:33;;;;;;;;;;;19.40;55.00;;;;;;6272016;28;20344;-67
2023/03/30 16:33:33;;;;;;;;;;;19.30;55.10;;;;;;6253876;28;19917;-67
2023/03/30 16:36:34;;;;;;;;;;;19.30;55.10;;;;;;6271733;28;19963;-67
2023/03/30 16:39:35;;;;;;;;;;;19.30;55.00;;;;;;6260965;28;19946;-67
2023/03/30 16:42:36;;;;;;;;;;;19.40;55.10;;;;;;6243838;28;20004;-67
2023/03/30 16:45:36;;;;;;;;;;;19.30;55.00;;;;;;6250522;28;19915;-67
2023/03/30 16:48:38;;;;;;;;;;;19.30;55.00;;;;;;6251460;28;19913;-67
2023/03/30 16:51:39;;;;;;;;;;;19.40;55.10;;;;;;6243240;28;19920;-67
2023/03/30 16:54:39;;;;;;;;;;;19.40;54.90;;;;;;6271218;28;19967;-67
2023/03/30 16:57:40;;;;;;;;;;;19.40;55.00;;;;;;6249014;28;20532;-67
2023/03/30 17:00:40;;;;;;;;;;;19.40;55.00;;;;;;6228793;28;19910;-67
2023/03/30 17:03:41;;;;;;;;;;;19.40;55.00;;;;;;6205977;28;20033;-67
2023/03/30 17:06:42;;;;;;;;;;;19.40;55.00;;;;;;6235044;28;23288;-67
2023/03/30 17:09:43;;;;;;;;;;;19.40;55.00;;;;;;6246721;28;20588;-67
2023/03/30 17:12:43;;;;;;;;;;;19.40;55.00;;;;;;6246744;28;19917;-67
2023/03/30 17:15:44;;;;;;;;;;;19.40;55.00;;;;;;6248934;28;19920;-67
2023/03/30 17:18:45;;;;;;;;;;;19.40;55.00;;;;;;6269895;28;20607;-67
2023/03/30 17:21:45;;;;;;;;;;;19.40;55.00;;;;;;6243462;28;19966;-68
2023/03/30 17:24:46;;;;;;;;;;;19.40;55.10;;;;;;6221324;28;19910;-68
2023/03/30 17:27:48;;;;;;;;;;;19.40;55.10;;;;;;6237892;28;19921;-67
2023/03/30 17:30:50;;;;;;;;;;;19.30;55.00;;;;;;6250473;28;19913;-68
2023/03/30 17:33:50;;;;;;;;;;;19.30;55.10;;;;;;6236351;28;20022;-68
2023/03/30 17:36:51;;;;;;;;;;;19.40;55.10;;;;;;6228080;28;19913;-67
2023/03/30 17:39:51;;;;;;;;;;;19.40;54.90;;;;;;6247557;28;19916;-68
2023/03/30 17:42:52;;;;;;;;;;;19.50;55.00;;;;;;6256441;28;19909;-68
2023/03/30 17:45:53;;;;;;;;;;;19.50;54.90;;;;;;6245501;28;19999;-67
2023/03/30 17:48:54;;;;;;;;;;;19.50;55.10;;;;;;6248293;28;19978;-68
2023/03/30 17:51:55;;;;;;;;;;;19.50;55.10;;;;;;6231114;28;19916;-68
2023/03/30 17:54:56;;;;;;;;;;;19.50;55.10;;;;;;6269423;28;19908;-68
2023/03/30 17:57:57;;;;;;;;;;;19.50;55.10;;;;;;6269652;28;19956;-67
2023/03/30 18:00:58;;;;;;;;;;;19.50;55.10;;;;;;6270089;28;19963;-68
2023/03/30 18:03:59;;;;;;;;;;;19.50;55.10;;;;;;6231215;28;19913;-68
2023/03/30 18:07:01;;;;;;;;;;;19.50;55.10;;;;;;6246827;28;20488;-68
2023/03/30 18:10:15;;;;;;;;;;;19.40;55.00;;;;;;6244802;28;20335;-68
2023/03/30 18:13:17;;;;;;;;;;;19.40;55.00;;;;;;6256607;28;20375;-68
2023/03/30 18:16:18;;;;;;;;;;;19.50;55.10;;;;;;6269093;28;19995;-68
2023/03/30 18:19:19;;;;;;;;;;;19.40;55.00;;;;;;6250715;28;19917;-68
2023/03/30 18:22:19;;;;;;;;;;;19.40;54.90;;;;;;6268225;28;20352;-68
2023/03/30 18:25:20;;;;;;;;;;;19.40;54.90;;;;;;6252688;28;19909;-68
2023/03/30 18:28:22;;;;;;;;;;;19.40;54.90;;;;;;6244476;28;20320;-68
2023/03/30 18:31:23;;;;;;;;;;;19.40;55.00;;;;;;6262820;28;19915;-68
2023/03/30 18:34:24;;;;;;;;;;;19.40;55.00;;;;;;6225778;28;19909;-68
2023/03/30 18:37:24;;;;;;;;;;;19.40;55.00;;;;;;6230151;28;19967;-68
2023/03/30 18:40:28;;;;;;;;;;;19.50;55.10;;;;;;6268519;28;20342;-68
2023/03/30 18:43:29;;;;;;;;;;;19.50;55.10;;;;;;6267832;28;20383;-68
2023/03/30 18:46:30;;;;;;;;;;;19.50;55.10;;;;;;6250568;28;19909;-68
2023/03/30 18:49:30;;;;;;;;;;;19.50;55.10;;;;;;6250113;28;19913;-68
2023/03/30 18:52:32;;;;;;;;;;;19.50;55.10;;;;;;6226451;28;19921;-68
2023/03/30 18:55:35;;;;;;;;;;;19.50;55.10;;;;;;6267978;28;19915;-68